createdAt,value
2019-05-14T05:11:39.093Z,2.13
2019-05-14T05:21:38.686Z,2.25
2019-05-14T05:31:38.101Z,2.81
2019-05-14T05:41:38.303Z,3.01
2019-05-14T05:51:35.842Z,3.37
2019-05-14T06:01:44.922Z,4.06
2019-05-14T06:11:37.954Z,3.77
2019-05-14T06:21:36.022Z,4.30
2019-05-14T06:31:38.431Z,5.21
2019-05-14T06:41:40.143Z,5.76
2019-05-14T06:51:35.919Z,5.91
2019-05-14T07:01:38.260Z,6.10
2019-05-14T07:11:38.620Z,6.95
2019-05-14T07:21:38.195Z,6.51
2019-05-14T07:31:38.272Z,6.74
2019-05-14T07:41:34.964Z,7.75
2019-05-14T07:51:35.869Z,6.66
2019-05-14T08:01:35.752Z,7.77
2019-05-14T08:11:35.911Z,7.70
2019-05-14T08:21:38.257Z,8.38
2019-05-14T08:31:38.387Z,7.94
2019-05-14T08:41:38.134Z,9.52
2019-05-14T08:51:38.613Z,6.77
2019-05-14T09:01:38.526Z,7.33
2019-05-14T09:11:42.741Z,7.86
2019-05-14T09:21:39.441Z,9.77
2019-05-14T09:31:39.119Z,8.27
2019-05-14T09:41:35.907Z,8.56
2019-05-14T09:51:38.163Z,9.26
2019-05-14T10:01:38.192Z,7.93
2019-05-14T10:11:38.192Z,9.94
2019-05-14T10:21:38.873Z,8.22
2019-05-14T10:31:35.953Z,8.39
2019-05-14T10:41:38.498Z,9.75
2019-05-14T10:51:38.717Z,9.57
2019-05-14T11:01:35.847Z,9.17
2019-05-14T11:11:38.250Z,10.17
2019-05-14T11:21:36.011Z,9.18
2019-05-14T11:31:38.854Z,9.93
2019-05-14T11:41:38.734Z,9.46
2019-05-14T11:51:58.988Z,10.05
2019-05-14T12:01:39.043Z,10.04
2019-05-14T12:11:38.526Z,9.75
2019-05-14T12:21:35.810Z,8.81
2019-05-14T12:31:38.399Z,9.49
2019-05-14T12:41:38.106Z,10.70
2019-05-14T12:51:39.375Z,8.93
2019-05-14T13:01:36.086Z,9.95
2019-05-14T13:11:35.735Z,9.69
2019-05-14T13:21:38.739Z,11.20
2019-05-14T13:31:36.219Z,11.28
2019-05-14T13:41:35.661Z,9.44
2019-05-14T13:51:38.619Z,9.86
2019-05-14T14:01:35.891Z,9.99
2019-05-14T14:11:38.190Z,10.33
2019-05-14T14:21:35.950Z,10.20
2019-05-14T14:31:36.119Z,10.23
2019-05-14T14:41:38.447Z,10.23
2019-05-14T14:51:41.733Z,9.46
2019-05-14T15:01:39.870Z,10.17
2019-05-14T15:11:39.429Z,9.97
2019-05-14T15:21:36.575Z,10.62
2019-05-14T15:31:38.393Z,9.12
2019-05-14T15:41:39.118Z,9.48
2019-05-14T15:51:36.051Z,10.11
2019-05-14T16:01:39.593Z,10.09
2019-05-14T16:11:35.809Z,10.12
2019-05-14T16:21:38.558Z,9.53
2019-05-14T16:31:40.238Z,9.95
2019-05-14T16:41:38.836Z,9.97
2019-05-14T16:51:36.156Z,9.98
2019-05-14T17:01:35.920Z,10.31
2019-05-14T17:11:36.011Z,9.95
2019-05-14T17:21:35.997Z,10.29
2019-05-14T17:31:38.953Z,9.57
2019-05-14T17:41:36.182Z,8.99
2019-05-14T17:51:38.939Z,9.41
2019-05-14T18:01:39.070Z,9.06
2019-05-14T18:11:37.054Z,8.69
2019-05-14T18:21:39.085Z,8.72
2019-05-14T18:31:43.146Z,8.68
2019-05-14T18:41:35.903Z,8.24
2019-05-14T18:51:36.092Z,8.19
2019-05-14T19:01:35.848Z,7.99
